Time;durP1;ratioP1;P1;durP2;ratioP2;P2;SDS_P1;SDS_P2;PMS_P1;PMS_P2;Temp;Humidity;BMP_temperature;BMP_pressure;BME280_temperature;BME280_humidity;BME280_pressure;Samples;Min_cycle;Max_cycle;Signal;HPM_P1;HPM_P2
2023/10/18 04:30:30;;;;;;;0.00;0.00;;;17.00;82.90;;;;;;5831543;23;20049;-86
2023/10/18 04:33:00;;;;;;;0.00;0.00;;;16.90;83.60;;;;;;4888529;29;20436;-86
2023/10/18 04:35:29;;;;;;;0.10;0.10;;;16.80;84.50;;;;;;4885812;29;20056;-85
2023/10/18 04:37:58;;;;;;;0.00;0.00;;;16.80;84.50;;;;;;4894151;29;20477;-86
2023/10/18 04:40:25;;;;;;;0.00;0.00;;;16.80;86.70;;;;;;4889130;29;20024;-86
2023/10/18 04:42:56;;;;;;;0.00;0.00;;;16.60;86.50;;;;;;4902995;29;20039;-87
2023/10/18 04:45:26;;;;;;;0.00;0.00;;;16.60;86.00;;;;;;4904207;29;20093;-86
2023/10/18 04:48:01;;;;;;;0.10;0.10;;;16.60;86.60;;;;;;4886996;29;20402;-85
2023/10/18 04:50:29;;;;;;;0.00;0.00;;;16.60;87.20;;;;;;4885587;29;20456;-78
2023/10/18 04:52:58;;;;;;;0.00;0.00;;;16.60;86.80;;;;;;4885117;29;20037;-85
2023/10/18 04:55:25;;;;;;;0.10;0.10;;;16.60;86.20;;;;;;4885285;29;20485;-80
2023/10/18 04:57:53;;;;;;;0.00;0.00;;;16.70;86.30;;;;;;4884959;29;20564;-79
2023/10/18 05:00:25;;;;;;;0.00;0.00;;;16.70;86.00;;;;;;4883049;29;20439;-80
2023/10/18 05:02:58;;;;;;;0.20;0.10;;;16.80;86.00;;;;;;4884628;29;20082;-82
2023/10/18 05:05:26;;;;;;;0.00;0.00;;;16.80;86.00;;;;;;4901483;29;20024;-82
2023/10/18 05:07:53;;;;;;;0.00;0.00;;;16.80;86.00;;;;;;4891647;29;20100;-83
2023/10/18 05:10:21;;;;;;;0.00;0.00;;;16.80;86.10;;;;;;4900771;29;20025;-81
2023/10/18 05:15:28;;;;;;;0.00;0.00;;;16.80;86.10;;;;;;4902893;29;20036;-81
2023/10/18 05:17:59;;;;;;;0.10;0.10;;;16.90;86.10;;;;;;4903494;29;20025;-86
2023/10/18 05:20:41;;;;;;;0.00;0.00;;;16.90;86.20;;;;;;4895598;29;20528;-77
2023/10/18 05:23:07;;;;;;;0.00;0.00;;;16.90;86.40;;;;;;4888227;29;20025;-79
2023/10/18 05:25:45;;;;;;;0.00;0.00;;;16.90;86.30;;;;;;4886315;29;20096;-80
2023/10/18 05:28:17;;;;;;;0.00;0.00;;;16.90;86.30;;;;;;4884620;29;20036;-82
2023/10/18 05:36:04;;;;;;;0.10;0.10;;;16.80;86.90;;;;;;4903958;29;20036;-79
2023/10/18 05:41:28;;;;;;;0.00;0.00;;;16.80;87.00;;;;;;4915200;29;20047;-78
2023/10/18 05:44:01;;;;;;;0.00;0.00;;;16.80;87.00;;;;;;4893231;29;20036;-79
2023/10/18 05:46:38;;;;;;;0.10;0.10;;;16.80;86.90;;;;;;4902531;29;20447;-81
2023/10/18 05:49:14;;;;;;;0.00;0.00;;;16.80;86.90;;;;;;4885854;29;20040;-77
2023/10/18 05:51:51;;;;;;;0.00;0.00;;;16.80;86.70;;;;;;4903011;29;20020;-79
2023/10/18 05:54:19;;;;;;;0.10;0.10;;;16.80;86.60;;;;;;4885896;29;20071;-77
2023/10/18 05:56:53;;;;;;;0.00;0.00;;;16.80;86.70;;;;;;4902970;29;20039;-77
2023/10/18 06:02:00;;;;;;;0.00;0.00;;;16.70;86.80;;;;;;4908231;29;20039;-77
2023/10/18 06:04:38;;;;;;;0.00;0.00;;;16.80;86.70;;;;;;4900034;29;20084;-77
2023/10/18 06:07:10;;;;;;;0.00;0.00;;;16.80;86.70;;;;;;4911521;29;20024;-77
2023/10/18 06:09:45;;;;;;;0.00;0.00;;;16.80;86.50;;;;;;4894367;29;20043;-77
2023/10/18 06:12:15;;;;;;;0.00;0.00;;;16.80;86.50;;;;;;4896079;29;20285;-77
2023/10/18 06:14:44;;;;;;;0.10;0.10;;;16.80;86.40;;;;;;4894507;29;20048;-77
2023/10/18 06:17:19;;;;;;;0.03;0.03;;;16.80;86.30;;;;;;4916767;29;20036;-77
2023/10/18 06:19:45;;;;;;;0.00;0.00;;;16.80;86.30;;;;;;4915336;29;20020;-78
2023/10/18 06:22:15;;;;;;;0.10;0.10;;;16.90;86.20;;;;;;4885417;29;20029;-77
2023/10/18 06:24:45;;;;;;;0.08;0.08;;;16.90;86.00;;;;;;4902097;29;20112;-77
2023/10/18 06:27:15;;;;;;;0.03;0.03;;;16.90;86.10;;;;;;4901270;29;20071;-77
2023/10/18 06:29:42;;;;;;;0.00;0.00;;;16.90;86.00;;;;;;4902126;29;20028;-77
2023/10/18 06:32:13;;;;;;;0.00;0.00;;;17.00;85.90;;;;;;4904221;29;20060;-76
2023/10/18 06:34:43;;;;;;;0.00;0.00;;;16.90;86.00;;;;;;4901514;29;20028;-77
2023/10/18 06:37:09;;;;;;;0.10;0.10;;;16.90;86.20;;;;;;4913424;29;20036;-77
2023/10/18 06:39:35;;;;;;;0.00;0.00;;;16.80;86.90;;;;;;4894751;29;20040;-77
2023/10/18 06:42:06;;;;;;;0.00;0.00;;;16.80;87.60;;;;;;4903518;29;20028;-77
2023/10/18 06:44:33;;;;;;;0.10;0.10;;;16.70;88.30;;;;;;4921094;29;20059;-77
2023/10/18 06:47:19;;;;;;;0.00;0.00;;;16.70;89.10;;;;;;4904177;29;20030;-77
2023/10/18 06:49:47;;;;;;;0.00;0.00;;;16.60;88.90;;;;;;4917511;29;20036;-77
2023/10/18 06:52:21;;;;;;;0.00;0.00;;;16.60;88.60;;;;;;4903545;29;20032;-77
2023/10/18 06:54:46;;;;;;;0.00;0.00;;;16.60;88.70;;;;;;4920150;29;20032;-77
2023/10/18 06:57:15;;;;;;;0.00;0.00;;;16.50;89.10;;;;;;4920669;29;20035;-77
2023/10/18 06:59:45;;;;;;;0.00;0.00;;;16.50;89.40;;;;;;4889808;29;20044;-77
2023/10/18 07:02:13;;;;;;;0.00;0.00;;;16.50;89.20;;;;;;4906229;29;20551;-76
2023/10/18 07:04:39;;;;;;;0.00;0.00;;;16.50;89.40;;;;;;4904160;29;20096;-76
2023/10/18 07:07:11;;;;;;;0.00;0.00;;;16.50;89.50;;;;;;4900676;29;20101;-76
2023/10/18 07:09:37;;;;;;;0.00;0.00;;;16.50;89.60;;;;;;4884404;29;20417;-76
2023/10/18 07:12:03;;;;;;;0.10;0.10;;;16.50;89.50;;;;;;4900279;29;20052;-76
2023/10/18 07:14:32;;;;;;;0.00;0.00;;;16.50;90.20;;;;;;4901224;29;20036;-76
2023/10/18 07:17:01;;;;;;;0.00;0.00;;;16.40;90.40;;;;;;4901309;29;20119;-77
2023/10/18 07:19:29;;;;;;;0.05;0.05;;;16.40;90.80;;;;;;4903829;29;20037;-78
2023/10/18 07:21:59;;;;;;;0.10;0.10;;;16.40;91.20;;;;;;4895086;29;20116;-78
2023/10/18 07:24:32;;;;;;;0.10;0.10;;;16.40;90.70;;;;;;4901601;29;20061;-78
2023/10/18 07:26:59;;;;;;;0.10;0.10;;;16.40;90.50;;;;;;4901699;29;20092;-78
2023/10/18 07:29:27;;;;;;;0.10;0.10;;;16.50;91.00;;;;;;4901442;29;20055;-78
2023/10/18 07:31:53;;;;;;;0.10;0.10;;;16.40;91.80;;;;;;4900715;29;20044;-78
2023/10/18 07:34:25;;;;;;;0.10;0.10;;;16.30;91.90;;;;;;4889093;29;20451;-78
2023/10/18 07:36:54;;;;;;;0.10;0.10;;;16.30;92.20;;;;;;4901492;29;20504;-79
2023/10/18 07:39:24;;;;;;;0.00;0.00;;;16.20;92.70;;;;;;4915617;29;20024;-78
2023/10/18 07:41:51;;;;;;;0.00;0.00;;;16.20;93.00;;;;;;4901816;29;20027;-77
2023/10/18 07:44:17;;;;;;;0.00;0.00;;;16.20;93.00;;;;;;4901514;29;20023;-77
2023/10/18 07:46:43;;;;;;;0.05;0.05;;;16.20;93.00;;;;;;4884388;29;20564;-78
2023/10/18 07:49:16;;;;;;;0.08;0.08;;;16.30;93.20;;;;;;4901431;29;20103;-77
2023/10/18 07:51:49;;;;;;;0.00;0.00;;;16.30;93.10;;;;;;4884418;29;20469;-77
2023/10/18 07:54:16;;;;;;;0.00;0.00;;;16.40;93.10;;;;;;4883834;29;20059;-77
2023/10/18 07:56:52;;;;;;;0.00;0.00;;;16.30;93.00;;;;;;4901299;29;20044;-77
2023/10/18 07:59:29;;;;;;;0.00;0.00;;;16.30;92.90;;;;;;4910777;29;20028;-78
2023/10/18 08:04:43;;;;;;;0.00;0.00;;;16.40;93.40;;;;;;4906441;29;20035;-79
2023/10/18 08:07:12;;;;;;;0.00;0.00;;;16.40;93.20;;;;;;4901130;29;20405;-78
2023/10/18 08:09:41;;;;;;;0.00;0.00;;;16.40;93.30;;;;;;4903413;29;20021;-80
2023/10/18 08:12:18;;;;;;;0.00;0.00;;;16.30;93.70;;;;;;4900899;29;20033;-80
2023/10/18 08:14:47;;;;;;;0.00;0.00;;;16.30;93.90;;;;;;4900554;29;20032;-80
2023/10/18 08:17:29;;;;;;;0.00;0.00;;;16.30;93.90;;;;;;4884368;29;20127;-81
2023/10/18 08:20:17;;;;;;;0.00;0.00;;;16.40;94.00;;;;;;4901035;29;20429;-80
2023/10/18 08:22:41;;;;;;;0.10;0.10;;;16.40;94.10;;;;;;4904192;29;20052;-80
2023/10/18 08:25:21;;;;;;;0.03;0.03;;;16.30;94.10;;;;;;4910049;29;20056;-81
2023/10/18 08:27:51;;;;;;;0.03;0.03;;;16.40;94.10;;;;;;4892090;29;20036;-81
2023/10/18 08:33:01;;;;;;;0.00;0.00;;;16.60;94.10;;;;;;4904116;29;20101;-79
2023/10/18 08:35:26;;;;;;;0.00;0.00;;;16.50;94.10;;;;;;4903588;29;20064;-80
2023/10/18 08:37:52;;;;;;;0.00;0.00;;;16.60;94.10;;;;;;4921311;29;20035;-81
2023/10/18 08:43:12;;;;;;;0.03;0.03;;;16.70;94.20;;;;;;4904115;29;20021;-82
2023/10/18 08:45:48;;;;;;;0.00;0.00;;;16.70;94.30;;;;;;4904353;29;20024;-81
2023/10/18 08:48:17;;;;;;;0.00;0.00;;;16.70;94.30;;;;;;4886575;29;20119;-79
2023/10/18 08:50:45;;;;;;;0.05;0.05;;;16.70;94.30;;;;;;4887242;29;20037;-79
2023/10/18 08:53:15;;;;;;;0.10;0.10;;;16.70;94.30;;;;;;4913869;29;20029;-80
2023/10/18 08:55:45;;;;;;;0.10;0.10;;;16.80;94.50;;;;;;4903787;29;20047;-80
2023/10/18 08:58:20;;;;;;;0.10;0.10;;;16.80;94.50;;;;;;4910294;29;20028;-80
2023/10/18 09:03:24;;;;;;;0.00;0.00;;;16.90;94.50;;;;;;4903684;29;20028;-80
2023/10/18 09:06:22;;;;;;;0.00;0.00;;;16.90;94.50;;;;;;4903186;29;20028;-81
2023/10/18 09:08:44;;;;;;;0.00;0.00;;;17.00;94.50;;;;;;4902151;29;20119;-79
2023/10/18 09:11:21;;;;;;;0.05;0.05;;;17.00;94.50;;;;;;4886619;29;20036;-80
2023/10/18 09:16:41;;;;;;;0.00;0.00;;;17.00;94.50;;;;;;4902921;29;20035;-79
2023/10/18 09:19:09;;;;;;;0.10;0.10;;;17.10;94.50;;;;;;4903103;29;20060;-80
2023/10/18 09:21:36;;;;;;;0.00;0.00;;;17.10;94.50;;;;;;4888111;29;20028;-80
2023/10/18 09:24:06;;;;;;;0.00;0.00;;;17.20;94.50;;;;;;4903231;29;20100;-80
2023/10/18 09:26:41;;;;;;;0.00;0.00;;;17.20;94.50;;;;;;4902737;29;20028;-79
2023/10/18 09:29:10;;;;;;;0.08;0.08;;;17.30;94.40;;;;;;4886517;29;20028;-79
2023/10/18 09:31:52;;;;;;;0.00;0.00;;;17.30;94.50;;;;;;4890908;29;20080;-79
2023/10/18 09:34:19;;;;;;;0.00;0.00;;;17.30;94.50;;;;;;4902151;29;20032;-79
2023/10/18 09:36:56;;;;;;;0.10;0.10;;;17.50;94.50;;;;;;4894327;29;20426;-79
2023/10/18 09:39:24;;;;;;;0.00;0.00;;;17.50;94.50;;;;;;4917692;29;20051;-79
2023/10/18 09:41:50;;;;;;;0.10;0.10;;;17.60;94.40;;;;;;4886017;29;20056;-79
2023/10/18 09:44:18;;;;;;;0.10;0.10;;;17.60;94.50;;;;;;4902770;29;20039;-79
2023/10/18 09:46:48;;;;;;;0.10;0.10;;;17.70;94.50;;;;;;4902507;29;20124;-79
2023/10/18 09:49:21;;;;;;;0.10;0.10;;;17.70;94.50;;;;;;4886140;29;20024;-78
2023/10/18 09:51:53;;;;;;;;;;;17.80;94.30;;;;;;4886446;29;20033;-79
2023/10/18 09:54:22;;;;;;;0.00;0.00;;;17.90;94.30;;;;;;4902530;29;20050;-80
2023/10/18 09:56:56;;;;;;;0.00;0.00;;;17.90;94.30;;;;;;4885421;29;20036;-79
2023/10/18 09:59:30;;;;;;;0.00;0.00;;;17.90;94.30;;;;;;4903497;29;20542;-80
2023/10/18 10:02:00;;;;;;;0.10;0.10;;;17.90;94.50;;;;;;4903262;29;20032;-80
2023/10/18 10:04:32;;;;;;;0.10;0.10;;;17.90;94.60;;;;;;4902535;29;20036;-80
2023/10/18 10:09:48;;;;;;;0.10;0.10;;;18.10;94.60;;;;;;4902723;29;20516;-79
2023/10/18 10:12:18;;;;;;;0.00;0.00;;;18.20;94.60;;;;;;4886982;29;20039;-80
2023/10/18 10:14:45;;;;;;;0.08;0.08;;;18.20;94.50;;;;;;4902415;29;20028;-81
2023/10/18 10:17:20;;;;;;;0.00;0.00;;;18.20;94.50;;;;;;4900991;29;20033;-79
2023/10/18 10:19:50;;;;;;;0.10;0.10;;;18.20;94.60;;;;;;4896952;29;20036;-80
2023/10/18 10:22:18;;;;;;;0.00;0.00;;;18.30;94.60;;;;;;4902590;29;20063;-78
2023/10/18 10:24:50;;;;;;;0.08;0.08;;;18.30;94.50;;;;;;4902387;29;20032;-79
2023/10/18 10:27:27;;;;;;;0.10;0.10;;;18.30;94.50;;;;;;4886672;29;20040;-79
2023/10/18 10:29:57;;;;;;;0.00;0.00;;;18.40;94.50;;;;;;4903065;29;20036;-79
2023/10/18 10:32:24;;;;;;;0.00;0.00;;;18.50;94.50;;;;;;4908722;29;20056;-78
2023/10/18 10:35:16;;;;;;;0.00;0.00;;;18.50;94.40;;;;;;4915933;29;20036;-79
2023/10/18 10:37:50;;;;;;;0.00;0.00;;;18.50;94.50;;;;;;4920997;29;20032;-78
2023/10/18 10:43:03;;;;;;;0.00;0.00;;;18.60;94.60;;;;;;4902214;29;20035;-78
2023/10/18 10:50:45;;;;;;;0.00;0.00;;;18.80;94.60;;;;;;4902195;29;20505;-78
2023/10/18 10:53:11;;;;;;;0.00;0.00;;;18.80;94.60;;;;;;4901829;29;20036;-78
2023/10/18 10:55:38;;;;;;;0.10;0.10;;;18.90;94.60;;;;;;4920792;29;20036;-78
2023/10/18 10:58:16;;;;;;;0.00;0.00;;;18.90;94.50;;;;;;4911467;29;20025;-78
2023/10/18 11:01:02;;;;;;;0.00;0.00;;;18.90;94.60;;;;;;4902057;29;20574;-78
2023/10/18 11:03:53;;;;;;;0.00;0.00;;;19.00;94.50;;;;;;4893513;29;20111;-78
2023/10/18 11:06:26;;;;;;;0.00;0.00;;;19.00;94.50;;;;;;4901388;29;20052;-78
2023/10/18 11:08:53;;;;;;;0.00;0.00;;;19.10;94.50;;;;;;4901859;29;20035;-78
2023/10/18 11:11:21;;;;;;;0.00;0.00;;;19.10;94.50;;;;;;4916833;29;20032;-78
2023/10/18 11:13:48;;;;;;;0.10;0.08;;;19.10;94.50;;;;;;4920591;29;20115;-78
2023/10/18 11:16:17;;;;;;;0.00;0.00;;;19.10;94.40;;;;;;4920346;29;20032;-78
2023/10/18 11:18:48;;;;;;;0.05;0.05;;;19.10;94.40;;;;;;4917895;29;20016;-77
2023/10/18 11:21:30;;;;;;;0.00;0.00;;;19.10;94.50;;;;;;4919423;29;20467;-78
2023/10/18 11:24:11;;;;;;;0.00;0.00;;;19.20;94.30;;;;;;4903889;29;20028;-77
2023/10/18 11:26:46;;;;;;;0.00;0.00;;;19.20;94.30;;;;;;4902126;29;20033;-77
2023/10/18 11:29:12;;;;;;;0.00;0.00;;;19.20;94.10;;;;;;4901589;29;20163;-86
2023/10/18 11:31:41;;;;;;;0.00;0.00;;;19.20;94.30;;;;;;4892109;29;20575;-79
2023/10/18 11:34:07;;;;;;;0.00;0.00;;;19.20;94.20;;;;;;4910196;29;20054;-78
2023/10/18 11:36:34;;;;;;;0.03;0.03;;;19.20;94.20;;;;;;4905626;29;20036;-79
2023/10/18 11:39:18;;;;;;;0.10;0.10;;;19.30;94.30;;;;;;4883537;29;20029;-78
2023/10/18 11:41:49;;;;;;;0.00;0.00;;;19.30;93.90;;;;;;4902947;29;20024;-78
2023/10/18 11:44:34;;;;;;;0.08;0.08;;;19.20;93.90;;;;;;4906489;29;20100;-86
2023/10/18 11:47:23;;;;;;;0.00;0.00;;;19.20;93.90;;;;;;4886336;29;20508;-78
2023/10/18 11:49:53;;;;;;;0.00;0.00;;;19.20;94.10;;;;;;4905858;29;20064;-78
2023/10/18 11:52:25;;;;;;;0.00;0.00;;;19.30;94.20;;;;;;4907166;29;20044;-78
2023/10/18 11:54:52;;;;;;;0.00;0.00;;;19.30;94.00;;;;;;4904070;29;20031;-78
2023/10/18 11:57:35;;;;;;;0.10;0.10;;;19.20;93.90;;;;;;4907747;29;20054;-78
2023/10/18 12:03:04;;;;;;;0.00;0.00;;;19.30;93.90;;;;;;4835495;29;20029;-78
2023/10/18 12:05:31;;;;;;;0.10;0.10;;;19.30;93.80;;;;;;4897521;29;20524;-78
2023/10/18 12:08:01;;;;;;;0.00;0.00;;;19.30;93.90;;;;;;4912711;29;20481;-78
2023/10/18 12:10:34;;;;;;;0.00;0.00;;;19.30;93.70;;;;;;4913745;29;20128;-78
2023/10/18 12:13:02;;;;;;;;;;;19.30;93.80;;;;;;4914651;29;20476;-78
2023/10/18 12:15:30;;;;;;;0.10;0.10;;;19.30;93.80;;;;;;4896045;29;20061;-78
2023/10/18 12:17:56;;;;;;;0.00;0.00;;;19.30;93.90;;;;;;4908724;29;20530;-78
2023/10/18 12:20:34;;;;;;;0.00;0.00;;;19.20;93.80;;;;;;4893879;29;20131;-78
2023/10/18 12:23:09;;;;;;;0.00;0.00;;;19.20;93.60;;;;;;4897074;29;20029;-78
2023/10/18 12:25:44;;;;;;;0.00;0.00;;;19.10;93.70;;;;;;4912623;29;20051;-78
2023/10/18 12:30:56;;;;;;;0.00;0.00;;;19.20;93.60;;;;;;4911951;29;20056;-78
2023/10/18 12:33:27;;;;;;;0.00;0.00;;;19.20;93.50;;;;;;4895467;29;20032;-78
2023/10/18 12:35:56;;;;;;;0.00;0.00;;;19.20;93.50;;;;;;4892184;29;20119;-79
2023/10/18 12:38:31;;;;;;;0.00;0.00;;;19.20;93.50;;;;;;4912571;29;20071;-78
2023/10/18 12:41:17;;;;;;;0.00;0.00;;;19.20;93.10;;;;;;4889473;29;20028;-78
2023/10/18 12:43:47;;;;;;;0.00;0.00;;;19.20;93.30;;;;;;4910556;29;20457;-78
2023/10/18 12:46:17;;;;;;;0.00;0.00;;;19.20;93.20;;;;;;4908475;29;20033;-79
2023/10/18 12:48:49;;;;;;;0.05;0.05;;;19.20;93.00;;;;;;4887475;29;20552;-78
2023/10/18 12:51:17;;;;;;;0.00;0.00;;;19.20;93.20;;;;;;4905522;29;20043;-78
2023/10/18 12:53:55;;;;;;;0.00;0.00;;;19.20;93.10;;;;;;4904978;29;20031;-78
2023/10/18 13:04:07;;;;;;;0.00;0.00;;;19.20;92.90;;;;;;4909588;29;20032;-78
2023/10/18 13:06:42;;;;;;;0.10;0.10;;;19.10;92.70;;;;;;4911701;29;20028;-78
2023/10/18 13:14:11;;;;;;;0.00;0.00;;;19.00;92.40;;;;;;4908072;29;20040;-78
2023/10/18 13:16:37;;;;;;;0.00;0.00;;;19.10;92.60;;;;;;4912531;29;20077;-78
2023/10/18 13:19:06;;;;;;;0.00;0.00;;;19.10;92.30;;;;;;4912248;29;20032;-82
2023/10/18 13:21:33;;;;;;;0.10;0.10;;;19.00;92.00;;;;;;4895780;29;20088;-83
2023/10/18 13:24:20;;;;;;;0.00;0.00;;;19.00;91.90;;;;;;4910067;29;20035;-84
2023/10/18 13:26:47;;;;;;;0.10;0.10;;;19.00;91.80;;;;;;4908611;29;20040;-82
2023/10/18 13:31:45;;;;;;;0.00;0.00;;;18.80;91.80;;;;;;4911408;29;20115;-82
2023/10/18 13:34:18;;;;;;;0.00;0.00;;;18.80;91.70;;;;;;4911712;29;20028;-82
2023/10/18 13:36:53;;;;;;;0.00;0.00;;;18.80;91.50;;;;;;4909594;29;20013;-82
2023/10/18 13:39:20;;;;;;;0.00;0.00;;;18.90;91.90;;;;;;4910100;29;20037;-83
2023/10/18 13:41:46;;;;;;;0.00;0.00;;;18.80;91.50;;;;;;4912036;29;20052;-81
2023/10/18 13:44:13;;;;;;;0.08;0.08;;;18.80;91.70;;;;;;4912279;29;20028;-82
2023/10/18 13:46:39;;;;;;;0.00;0.00;;;18.80;91.40;;;;;;4906026;29;20032;-78
2023/10/18 13:49:08;;;;;;;0.00;0.00;;;18.80;91.40;;;;;;4913051;29;20033;-83
2023/10/18 13:51:37;;;;;;;0.10;0.10;;;18.80;91.40;;;;;;4891278;29;20039;-82
2023/10/18 13:54:04;;;;;;;0.00;0.00;;;18.80;91.30;;;;;;4890480;29;20112;-82
2023/10/18 13:56:36;;;;;;;0.08;0.08;;;18.70;90.90;;;;;;4900078;29;20182;-81
2023/10/18 13:59:02;;;;;;;0.00;0.00;;;18.70;91.20;;;;;;4907548;29;20025;-83
2023/10/18 14:01:28;;;;;;;0.00;0.00;;;18.60;90.80;;;;;;4889190;29;20499;-81
2023/10/18 14:03:55;;;;;;;0.00;0.00;;;18.70;91.00;;;;;;4911367;29;20028;-83
2023/10/18 14:06:22;;;;;;;0.00;0.00;;;18.70;90.70;;;;;;4904779;29;20036;-81
2023/10/18 14:08:48;;;;;;;0.00;0.00;;;18.70;90.90;;;;;;4916601;29;20020;-81
2023/10/18 14:11:14;;;;;;;0.00;0.00;;;18.70;90.30;;;;;;4897663;29;20043;-83
2023/10/18 14:13:43;;;;;;;0.00;0.00;;;18.80;90.50;;;;;;4893440;29;20469;-82
2023/10/18 14:16:12;;;;;;;0.00;0.00;;;18.80;90.20;;;;;;4907689;29;20100;-88
2023/10/18 14:18:42;;;;;;;0.10;0.10;;;18.80;90.10;;;;;;4889023;29;20051;-86
2023/10/18 14:21:17;;;;;;;0.00;0.00;;;18.90;90.10;;;;;;4903740;29;20161;-83
2023/10/18 14:23:45;;;;;;;0.00;0.00;;;18.80;89.70;;;;;;4889414;29;20028;-83
2023/10/18 14:26:11;;;;;;;0.00;0.00;;;18.80;89.70;;;;;;4886607;29;20047;-82
2023/10/18 14:28:37;;;;;;;0.10;0.10;;;18.80;89.70;;;;;;4888516;29;20028;-81
2023/10/18 14:31:14;;;;;;;0.00;0.00;;;18.70;89.30;;;;;;4888761;29;20116;-84
2023/10/18 14:33:44;;;;;;;0.00;0.00;;;18.70;89.70;;;;;;4889830;29;20123;-80
2023/10/18 14:36:13;;;;;;;0.10;0.10;;;18.70;89.50;;;;;;4907021;29;20040;-81
2023/10/18 14:38:39;;;;;;;0.00;0.00;;;18.60;89.50;;;;;;4894812;29;20043;-81
2023/10/18 14:41:25;;;;;;;0.00;0.00;;;18.70;89.60;;;;;;4914832;29;20024;-80
2023/10/18 14:43:51;;;;;;;0.00;0.00;;;18.60;89.30;;;;;;4904618;29;20025;-81
2023/10/18 14:46:23;;;;;;;0.00;0.00;;;18.70;89.30;;;;;;4904278;29;20100;-81
2023/10/18 14:48:53;;;;;;;0.00;0.00;;;18.60;89.30;;;;;;4892169;29;20449;-80
2023/10/18 14:51:22;;;;;;;0.00;0.00;;;18.70;89.20;;;;;;4908855;29;20040;-81
2023/10/18 14:53:51;;;;;;;0.00;0.00;;;18.60;88.60;;;;;;4915328;29;20035;-81
2023/10/18 14:56:19;;;;;;;0.00;0.00;;;18.50;88.80;;;;;;4908785;29;20041;-80
2023/10/18 14:58:47;;;;;;;0.00;0.00;;;18.40;89.10;;;;;;4904168;29;20032;-80
2023/10/18 15:01:13;;;;;;;0.10;0.10;;;18.30;89.20;;;;;;4904332;29;20021;-79
2023/10/18 15:03:45;;;;;;;0.10;0.10;;;18.30;89.20;;;;;;4892150;29;20183;-80
2023/10/18 15:06:16;;;;;;;0.05;0.05;;;18.20;89.00;;;;;;4903637;29;20017;-79
2023/10/18 15:08:43;;;;;;;0.00;0.00;;;18.20;89.50;;;;;;4897321;29;20024;-80
2023/10/18 15:11:12;;;;;;;0.00;0.00;;;18.20;89.20;;;;;;4891656;29;20064;-79
2023/10/18 15:13:43;;;;;;;0.00;0.00;;;18.20;89.20;;;;;;4892637;29;20461;-80
2023/10/18 15:16:10;;;;;;;0.00;0.00;;;18.20;89.00;;;;;;4892586;29;20033;-81
2023/10/18 15:18:36;;;;;;;0.00;0.00;;;18.20;88.20;;;;;;4909338;29;20060;-80
2023/10/18 15:21:03;;;;;;;0.00;0.00;;;18.10;87.40;;;;;;4905159;29;20023;-79
2023/10/18 15:23:29;;;;;;;0.00;0.00;;;18.20;88.50;;;;;;4892947;29;20028;-81
2023/10/18 15:26:09;;;;;;;0.00;0.00;;;18.10;87.80;;;;;;4894500;29;20063;-79
2023/10/18 15:28:39;;;;;;;0.00;0.00;;;18.00;88.80;;;;;;4878694;29;20052;-80
2023/10/18 15:31:14;;;;;;;0.00;0.00;;;17.90;88.30;;;;;;4894198;29;20045;-80
2023/10/18 15:33:42;;;;;;;0.10;0.10;;;17.80;88.40;;;;;;4888050;29;20060;-80
2023/10/18 15:36:23;;;;;;;0.10;0.10;;;17.80;88.90;;;;;;4897871;29;20032;-80
2023/10/18 15:38:50;;;;;;;0.00;0.00;;;17.70;88.70;;;;;;4902139;29;20028;-80
2023/10/18 15:41:19;;;;;;;0.45;0.03;;;17.70;88.90;;;;;;4894739;29;20124;-79
2023/10/18 15:43:49;;;;;;;0.03;0.03;;;17.70;88.60;;;;;;4914687;29;20028;-80
2023/10/18 15:46:23;;;;;;;0.00;0.00;;;17.70;89.00;;;;;;4895791;29;20122;-80
2023/10/18 15:48:49;;;;;;;0.00;0.00;;;17.70;88.00;;;;;;4928826;29;20032;-79
2023/10/18 15:51:16;;;;;;;0.08;0.08;;;17.70;88.00;;;;;;4903361;29;20035;-78
2023/10/18 15:53:43;;;;;;;0.00;0.00;;;17.60;87.40;;;;;;4911228;29;20068;-80
2023/10/18 15:56:09;;;;;;;0.00;0.00;;;17.60;87.40;;;;;;4904160;29;20115;-80
2023/10/18 15:58:36;;;;;;;0.00;0.00;;;17.50;87.00;;;;;;4889926;29;20092;-80
2023/10/18 16:01:05;;;;;;;0.00;0.00;;;17.50;86.90;;;;;;4904317;29;20073;-83
2023/10/18 16:03:30;;;;;;;0.00;0.00;;;17.40;87.60;;;;;;4909874;29;20032;-80
2023/10/18 16:05:57;;;;;;;0.00;0.00;;;17.30;87.20;;;;;;4905602;29;20568;-80
2023/10/18 16:08:22;;;;;;;0.10;0.10;;;17.30;86.90;;;;;;4912996;29;20032;-79
2023/10/18 16:10:48;;;;;;;0.00;0.00;;;17.30;87.30;;;;;;4889420;29;20032;-82
2023/10/18 16:13:17;;;;;;;0.00;0.00;;;17.30;87.20;;;;;;4909498;29;20036;-81
2023/10/18 16:15:44;;;;;;;0.05;0.05;;;17.30;86.60;;;;;;4899349;29;20064;-79
2023/10/18 16:18:09;;;;;;;0.00;0.00;;;17.20;86.90;;;;;;4895098;29;20171;-80
2023/10/18 16:20:37;;;;;;;0.00;0.00;;;17.20;87.40;;;;;;4911070;29;20107;-81
2023/10/18 16:23:03;;;;;;;0.10;0.10;;;17.30;88.10;;;;;;4892753;29;20478;-82
2023/10/18 16:25:32;;;;;;;0.10;0.10;;;17.20;87.20;;;;;;4907045;29;20017;-81
2023/10/18 16:27:59;;;;;;;0.00;0.00;;;17.20;88.20;;;;;;4890209;29;20036;-82
2023/10/18 16:30:25;;;;;;;0.05;0.05;;;17.20;88.00;;;;;;4903777;29;20481;-81
2023/10/18 16:32:54;;;;;;;0.10;0.10;;;17.20;88.10;;;;;;4897079;29;20051;-81
2023/10/18 16:35:20;;;;;;;0.00;0.00;;;17.20;88.30;;;;;;4893037;29;20060;-82
2023/10/18 16:37:46;;;;;;;0.00;0.00;;;17.10;88.20;;;;;;4892918;29;20066;-81
2023/10/18 16:40:18;;;;;;;0.00;0.00;;;17.10;88.10;;;;;;4912308;29;20024;-81
2023/10/18 16:42:47;;;;;;;0.00;0.00;;;17.10;88.00;;;;;;4891470;29;20033;-81
2023/10/18 16:45:19;;;;;;;0.10;0.10;;;17.10;87.30;;;;;;4899669;29;20029;-81
2023/10/18 16:47:48;;;;;;;0.10;0.10;;;17.10;88.00;;;;;;4896710;29;20036;-81
2023/10/18 16:50:14;;;;;;;0.10;0.10;;;17.10;87.80;;;;;;4904818;29;20039;-82
2023/10/18 16:52:43;;;;;;;0.08;0.08;;;17.10;87.90;;;;;;4891325;29;20041;-81
2023/10/18 16:55:17;;;;;;;0.10;0.10;;;17.00;87.50;;;;;;4894247;29;20032;-82
2023/10/18 16:57:48;;;;;;;0.10;0.10;;;17.00;87.30;;;;;;4912267;29;20060;-82
2023/10/18 17:00:18;;;;;;;0.10;0.10;;;17.00;87.80;;;;;;4893238;29;20025;-82
2023/10/18 17:02:49;;;;;;;0.10;0.10;;;17.00;87.80;;;;;;4888589;29;20031;-82
2023/10/18 17:05:18;;;;;;;0.10;0.10;;;16.90;88.20;;;;;;4909544;29;20031;-82
2023/10/18 17:07:46;;;;;;;0.10;0.10;;;16.90;88.00;;;;;;4895460;29;20032;-79
2023/10/18 17:10:18;;;;;;;0.00;0.00;;;16.80;88.50;;;;;;4910860;29;20119;-79
2023/10/18 17:12:45;;;;;;;0.00;0.00;;;16.80;88.60;;;;;;4895947;29;20028;-80
2023/10/18 17:15:12;;;;;;;0.00;0.00;;;16.80;88.60;;;;;;4912259;29;20071;-80
2023/10/18 17:17:42;;;;;;;0.03;0.03;;;16.80;88.40;;;;;;4896732;29;20385;-81
2023/10/18 17:20:14;;;;;;;0.00;0.00;;;16.80;88.30;;;;;;4906122;29;20124;-80
2023/10/18 17:22:42;;;;;;;0.00;0.00;;;16.70;88.40;;;;;;4911200;29;20141;-81
2023/10/18 17:25:08;;;;;;;0.10;0.10;;;16.70;88.30;;;;;;4910964;29;20040;-79
2023/10/18 17:27:34;;;;;;;0.00;0.00;;;16.80;88.00;;;;;;4910550;29;20025;-78
2023/10/18 17:30:00;;;;;;;0.10;0.10;;;16.80;87.90;;;;;;4910164;29;20095;-78
2023/10/18 17:32:28;;;;;;;0.10;0.10;;;16.80;88.10;;;;;;4913735;29;20082;-81
2023/10/18 17:34:54;;;;;;;0.00;0.00;;;16.80;88.40;;;;;;4891945;29;20028;-80
2023/10/18 17:37:20;;;;;;;0.10;0.10;;;16.80;88.80;;;;;;4892869;29;20048;-80
2023/10/18 17:39:49;;;;;;;0.10;0.10;;;16.80;88.20;;;;;;4894927;29;20023;-80
2023/10/18 17:42:17;;;;;;;0.10;0.10;;;16.80;88.70;;;;;;4910045;29;20036;-78
2023/10/18 17:44:43;;;;;;;0.05;0.05;;;16.80;88.50;;;;;;4911348;29;20032;-78
2023/10/18 17:47:08;;;;;;;0.00;0.00;;;16.80;88.50;;;;;;4913255;29;20036;-79
2023/10/18 17:49:34;;;;;;;0.10;0.10;;;16.70;88.20;;;;;;4912467;29;20039;-80
2023/10/18 17:52:00;;;;;;;0.10;0.10;;;16.70;88.00;;;;;;4906751;29;20052;-79
2023/10/18 17:54:25;;;;;;;0.03;0.03;;;16.70;88.10;;;;;;4886170;29;20043;-78
2023/10/18 17:56:51;;;;;;;0.10;0.10;;;16.70;88.60;;;;;;4922630;29;20060;-79
2023/10/18 17:59:18;;;;;;;0.10;0.10;;;16.60;87.80;;;;;;4924092;29;20051;-78
2023/10/18 18:01:51;;;;;;;0.00;0.00;;;16.60;88.50;;;;;;4912451;29;20401;-78
2023/10/18 18:04:17;;;;;;;0.10;0.10;;;16.70;88.50;;;;;;4905598;29;20025;-81
2023/10/18 18:06:43;;;;;;;0.03;0.03;;;16.70;88.50;;;;;;4903581;29;20504;-79
2023/10/18 18:09:08;;;;;;;0.10;0.10;;;16.70;88.50;;;;;;4886903;29;20159;-78
2023/10/18 18:11:35;;;;;;;0.00;0.00;;;16.70;88.10;;;;;;4885971;29;20029;-77
2023/10/18 18:14:01;;;;;;;0.00;0.00;;;16.70;88.40;;;;;;4902620;29;20023;-76
2023/10/18 18:16:27;;;;;;;0.00;0.00;;;16.60;88.20;;;;;;4904889;29;20028;-77
2023/10/18 18:18:54;;;;;;;0.08;0.08;;;16.60;88.40;;;;;;4902362;29;20088;-78
2023/10/18 18:21:21;;;;;;;0.08;0.08;;;16.60;88.30;;;;;;4903971;29;20020;-85
2023/10/18 18:23:51;;;;;;;0.00;0.00;;;16.60;88.70;;;;;;4885362;29;20028;-81
2023/10/18 18:26:17;;;;;;;0.05;0.05;;;16.60;88.70;;;;;;4885388;29;20065;-79
2023/10/18 18:28:43;;;;;;;0.00;0.00;;;16.50;88.60;;;;;;4902055;29;20401;-77
2023/10/18 18:31:10;;;;;;;0.08;0.08;;;16.50;88.70;;;;;;4902009;29;22066;-81